Aviation Digital Data Service (ADDS)

Output produced by METARs form (0230 UTC 13 February 2016)
found at http://aviationweather.gov/adds/metars/
 
KLEB 122320Z 1300/1324 18007KT P6SM SCT040 
     FM130800 18004KT P6SM -SHSN BKN030 OVC050 
     FM131500 31012G24KT 5SM -SHSN BKN030 OVC050